• Join FlightAware (Why Join?)
  • Login
  • US Flag 
02:52AM EST


 

Airport Tracker/Info


-or-


 

Live Flight TrackerFlight Track Log ✈ N5262F ✈ 17-Dec-2012 ✈ KFTG - KTRL

Flight Track Log - Related Links

Times and Time Zones

All times are in EST time to prevent confusion due to time zone crossing. See the N5262F flight status page for this flight to view local times or setup timezone preferences in your user account.

Time Position Orientation Groundspeed Altitude Reporting Facility
EST Latitude Longitude Course Direction KTS MPH feet Rate Location/Type
04:04PM 39.7167 -104.4833 134° Southeast 153 176 6,700  Level Denver TRACON
04:05PM 39.6833 -104.4500 142° Southeast 136 157 7,300 480 Climbing Denver TRACON
04:06PM 39.6775 -104.4406 129° Southeast 137 158 7,400 180 Climbing Denver Center
04:07PM 39.6456 -104.4064 141° Southeast 139 160 7,600 60 Climbing Denver Center
04:08PM 39.6081 -104.3675 141° Southeast 169 194 7,600 300 Level Denver Center
04:09PM 39.6147 -104.3114 134° Southeast  Level Estimated
04:09PM 39.5761 -104.3333 140° Southeast 148 170 8,300  Level Denver Center
04:10PM 39.5807 -104.2663 134° Southeast  Level Estimated
04:10PM 39.5431 -104.2983 141° Southeast 140 161 8,600  Level Denver Center
04:11PM 39.5106 -104.2647 141° Southeast 148 170 9,300 720 Climbing Denver Center
04:12PM 39.4881 -104.2386 138° Southeast 114 131 10,100 660 Climbing Denver Center
04:13PM 39.4633 -104.2125 141° Southeast 108 124 10,700 480 Climbing Denver Center
04:14PM 39.4417 -104.1922 144° Southeast 98 113 11,200 420 Climbing Denver Center
04:15PM 39.4167 -104.1700 146° Southeast 100 115 11,600 180 Climbing Denver Center
04:16PM 39.3856 -104.1414 145° Southeast 137 158 11,600  Level Denver Center
04:17PM 39.3514 -104.1114 146° Southeast 148 170 11,600  Level Denver Center
04:18PM 39.3144 -104.0783 145° Southeast 152 175 11,600  Level Denver Center
04:19PM 39.2783 -104.0481 147° Southeast 152 175 11,600  Level Denver Center
04:20PM 39.2436 -104.0186 147° Southeast 150 173 11,600  Level Denver Center
04:21PM 39.2117 -103.9850 141° Southeast 147 169 11,600  Level Denver Center
04:22PM 39.1794 -103.9511 141° Southeast 147 169 11,600  Level Denver Center
04:23PM 39.1450 -103.9167 142° Southeast 153 176 11,600  Level Denver Center
04:24PM 39.1042 -103.8764 143° Southeast 156 180 11,600  Level Denver Center
04:25PM 39.0683 -103.8456 146° Southeast 154 177 11,600  Level Denver Center
04:26PM 39.0317 -103.8156 148° Southeast 154 177 11,600  Level Denver Center
04:27PM 38.9917 -103.7869 151° Southeast 159 183 11,600  Level Denver Center
04:28PM 38.9536 -103.7594 151° Southeast 157 181 11,600  Level Denver Center
04:29PM 38.9233 -103.7311 144° Southeast 140 161 11,600  Level Denver Center
04:31PM 38.8878 -103.6981 144° Southeast 152 175 11,600  Level Denver Center
04:32PM 38.8481 -103.6569 141° Southeast 157 181 11,600  Level Denver Center
04:33PM 38.8139 -103.6236 143° Southeast 160 184 11,700  Climbing Denver Center
04:34PM 38.7817 -103.5883 140° Southeast 159 183 11,600 -60 Descending Denver Center
04:35PM 38.7475 -103.5406 133° Southeast 161 185 11,600  Level Denver Center
04:36PM 38.7167 -103.4961 132° Southeast 168 193 11,600  Level Denver Center
04:37PM 38.6783 -103.4458 134° Southeast 174 200 11,600  Level Denver Center
04:38PM 38.6500 -103.3994 128° Southeast 172 198 11,600  Level Denver Center
04:39PM 38.6181 -103.3411 125° Southeast 174 200 11,600  Level Denver Center
04:40PM 38.5883 -103.2903 127° Southeast 181 208 11,600  Level Denver Center
04:41PM 38.5592 -103.2419 128° Southeast 182 209 11,600  Level Denver Center
04:42PM 38.5264 -103.1856 127° Southeast 180 207 11,600  Level Denver Center
04:43PM 38.4972 -103.1372 128° Southeast 180 207 11,600  Level Denver Center
04:44PM 38.4619 -103.0831 130° Southeast 179 206 11,600  Level Denver Center
04:45PM 38.4319 -103.0375 130° Southeast 177 204 11,600  Level Denver Center
04:46PM 38.3983 -102.9853 129° Southeast 174 200 11,600  Level Denver Center
04:47PM 38.3686 -102.9417 131° Southeast 172 198 11,600  Level Denver Center
04:48PM 38.3392 -102.8967 130° Southeast 172 198 11,600  Level Denver Center
04:49PM 38.3017 -102.8419 131° Southeast 179 206 11,600  Level Denver Center
04:50PM 38.2697 -102.7950 131° Southeast 183 211 11,600  Level Denver Center
04:51PM 38.2319 -102.7392 131° Southeast 185 213 11,600  Level Denver Center
04:52PM 38.1986 -102.6928 132° Southeast 185 213 11,600  Level Denver Center
04:53PM 38.1572 -102.6397 135° Southeast 188 216 11,600  Level Denver Center
04:54PM 38.1256 -102.5922 130° Southeast 186 214 11,600  Level Denver Center
04:55PM 38.0897 -102.5375 130° Southeast 182 209 11,600  Level Denver Center
04:56PM 38.0597 -102.4892 128° Southeast 181 208 11,600  Level Denver Center
04:57PM 38.0206 -102.4381 134° Southeast 184 212 11,600  Level Denver Center
04:58PM 37.9872 -102.3950 134° Southeast 181 208 11,600  Level Denver Center
04:59PM 37.9567 -102.3486 130° Southeast 180 207 11,600  Level Denver Center
05:00PM 37.9203 -102.2969 132° Southeast 178 205 11,600  Level Denver Center
05:01PM 37.8900 -102.2536 132° Southeast 175 201 11,600  Level Denver Center
05:02PM 37.8556 -102.1997 129° Southeast 175 201 11,600  Level Denver Center
05:03PM 37.8275 -102.1531 127° Southeast 176 203 11,600 -60 Level Denver Center
05:04PM 37.7953 -102.0972 126° Southeast 176 203 11,500  Descending Denver Center
05:06PM 37.7675 -102.0500 127° Southeast 176 203 11,600  Climbing Denver Center
05:07PM 37.7361 -102.0006 129° Southeast 176 203 11,500 -60 Descending Denver Center
05:08PM 37.7031 -101.9511 130° Southeast 175 201 11,500  Level Denver Center
05:09PM 37.6717 -101.9022 129° Southeast 182 209 11,500  Level Denver Center
05:10PM 37.6358 -101.8467 129° Southeast 183 211 11,500  Level Denver Center
05:11PM 37.6069 -101.8014 129° Southeast 180 207 11,500  Level Denver Center
05:11PM 37.5953 -101.7831 129° Southeast 171 197 11,500  Level Kansas City Center
05:12PM 37.5644 -101.7406 132° Southeast 171 197 11,500  Level Kansas City Center
05:13PM 37.5336 -101.6958 131° Southeast 171 197 11,500  Level Kansas City Center
05:14PM 37.5069 -101.6539 129° Southeast 171 197 11,500  Level Kansas City Center
05:15PM 37.4725 -101.6036 131° Southeast 171 197 11,500  Level Kansas City Center
05:16PM 37.4397 -101.5586 133° Southeast 171 197 11,500  Level Kansas City Center
05:17PM 37.4128 -101.5194 131° Southeast 171 197 11,500  Level Kansas City Center
05:18PM 37.3781 -101.4719 133° Southeast 171 197 11,500  Level Kansas City Center
05:19PM 37.3411 -101.4242 134° Southeast 171 197 11,500  Level Kansas City Center
05:20PM 37.3083 -101.3792 132° Southeast 171 197 11,500  Level Kansas City Center
05:21PM 37.2792 -101.3400 133° Southeast 171 197 11,500  Level Kansas City Center
05:22PM 37.2444 -101.2900 131° Southeast 171 197 11,500  Level Kansas City Center
05:23PM 37.2158 -101.2431 127° Southeast 171 197 11,500  Level Kansas City Center
05:24PM 37.1853 -101.1961 129° Southeast 171 197 11,500  Level Kansas City Center
05:25PM 37.1606 -101.1522 125° Southeast 171 197 11,500  Level Kansas City Center
05:26PM 37.1281 -101.0997 128° Southeast 171 197 11,500  Level Kansas City Center
05:27PM 37.0992 -101.0531 128° Southeast 171 197 11,500  Level Kansas City Center
05:28PM 37.0725 -101.0067 126° Southeast 171 197 11,500  Level Kansas City Center
05:29PM 37.0439 -100.9597 127° Southeast 171 197 11,500  Level Kansas City Center
05:30PM 37.0092 -100.9075 130° Southeast 171 197 11,500  Level Kansas City Center
05:31PM 36.9806 -100.8583 126° Southeast 176 203 11,500  Level Kansas City Center
05:32PM 36.9514 -100.8142 130° Southeast 176 203 11,500  Level Kansas City Center
05:34PM 36.8881 -100.7131 128° Southeast 171 197 11,500  Level Kansas City Center
05:35PM 36.8569 -100.6664 130° Southeast 171 197 11,500  Level Kansas City Center
05:36PM 36.8278 -100.6250 131° Southeast 171 197 11,500  Level Kansas City Center
05:37PM 36.7950 -100.5758 130° Southeast 171 197 11,500  Level Kansas City Center
05:38PM 36.7600 -100.5236 130° Southeast 178 205 11,500  Level Kansas City Center
05:39PM 36.7289 -100.4797 131° Southeast 173 199 11,500  Level Kansas City Center
05:40PM 36.6975 -100.4386 134° Southeast 173 199 11,500  Level Kansas City Center
05:41PM 36.6622 -100.3892 132° Southeast 180 207 11,500  Level Kansas City Center
05:42PM 36.6311 -100.3428 130° Southeast 180 207 11,500  Level Kansas City Center
05:43PM 36.5958 -100.2961 133° Southeast 180 207 11,500  Level Kansas City Center
05:44PM 36.5647 -100.2525 132° Southeast 180 207 11,500  Level Kansas City Center
05:45PM 36.5314 -100.2061 132° Southeast 175 201 11,500  Level Kansas City Center
05:46PM 36.5003 -100.1572 128° Southeast 175 201 11,500  Level Kansas City Center
05:47PM 36.4714 -100.1061 125° Southeast 170 196 11,500  Level Kansas City Center
05:48PM 36.4425 -100.0550 125° Southeast 175 201 11,500  Level Kansas City Center
05:49PM 36.4114 -100.0061 128° Southeast 175 201 11,500  Level Kansas City Center
05:50PM 36.3869 -99.9528 120° Southeast 180 207 11,500  Level Kansas City Center
05:51PM 36.3556 -99.9042 129° Southeast 180 207 11,500  Level Kansas City Center
05:52PM 36.3306 -99.8561 123° Southeast 180 207 11,500  Level Kansas City Center
05:53PM 36.3017 -99.8050 125° Southeast 180 207 11,500  Level Kansas City Center
05:54PM 36.2747 -99.7517 122° Southeast 180 207 11,500  Level Kansas City Center
05:55PM 36.2522 -99.6986 118° Southeast 180 207 11,500  Level Kansas City Center
05:56PM 36.2272 -99.6456 120° Southeast 175 201 11,500  Level Kansas City Center
05:57PM 36.2044 -99.5925 118° Southeast 175 201 11,500  Level Kansas City Center
05:58PM 36.1839 -99.5397 116° Southeast 169 194 11,500  Level Kansas City Center
05:59PM 36.1611 -99.4869 118° Southeast 169 194 11,500  Level Kansas City Center
06:00PM 36.1383 -99.4314 117° Southeast 169 194 11,500  Level Kansas City Center
06:01PM 36.1153 -99.3786 118° Southeast 169 194 11,500 60 Level Kansas City Center
06:02PM 36.0886 -99.3203 119° Southeast 169 194 11,700 60 Climbing Kansas City Center
06:03PM 36.0636 -99.2675 120° Southeast 169 194 11,700  Level Kansas City Center
06:04PM 36.0364 -99.2144 122° Southeast 175 201 11,700  Level Kansas City Center
06:05PM 36.0133 -99.1667 121° Southeast 180 207 11,700  Level Kansas City Center
06:06PM 35.9903 -99.1114 117° Southeast 174 200 11,700  Level Kansas City Center
06:07PM 35.9717 -99.0539 112° Southeast 179 206 11,700 -60 Level Kansas City Center
06:09PM 35.9308 -98.9258 111° Southeast 180 207 11,600 -60 Descending Fort Worth Center
06:10PM 35.9106 -98.8664 113° Southeast 180 207 11,600  Level Fort Worth Center
06:11PM 35.8906 -98.8072 113° Southeast 180 207 11,600  Level Fort Worth Center
06:12PM 35.8681 -98.7531 117° Southeast 175 201 11,600  Level Fort Worth Center
06:13PM 35.8458 -98.6964 116° Southeast 175 201 11,600  Level Fort Worth Center
06:14PM 35.8233 -98.6422 117° Southeast 180 207 11,600  Level Fort Worth Center
06:15PM 35.7989 -98.5881 119° Southeast 180 207 11,600  Level Fort Worth Center
06:16PM 35.7744 -98.5342 119° Southeast 180 207 11,600  Level Fort Worth Center
06:17PM 35.7478 -98.4800 121° Southeast 180 207 11,600  Level Fort Worth Center
06:18PM 35.7314 -98.4517 125° Southeast 178 205 11,600  Level Fort Worth Center
06:18PM 35.7272 -98.4336 106° East 180 207 11,600  Level Fort Worth Center
06:19PM 35.7047 -98.3975 127° Southeast 178 205 11,600  Level Fort Worth Center
06:19PM 35.7006 -98.3847 112° Southeast 175 201 11,600  Level Fort Worth Center
06:20PM 35.6800 -98.3464 123° Southeast 176 203 11,600  Level Fort Worth Center
06:20PM 35.6739 -98.3283 113° Southeast 175 201 11,600  Level Fort Worth Center
06:21PM 35.6575 -98.2950 121° Southeast 176 203 11,600  Level Fort Worth Center
06:21PM 35.6492 -98.2769 120° Southeast 175 201 11,600  Level Fort Worth Center
06:22PM 35.6308 -98.2436 124° Southeast 176 203 11,600  Level Fort Worth Center
06:22PM 35.6225 -98.2256 120° Southeast 169 194 11,600  Level Fort Worth Center
06:23PM 35.6061 -98.1922 121° Southeast 176 203 11,600  Level Fort Worth Center
06:23PM 35.5958 -98.1742 125° Southeast 169 194 11,600  Level Fort Worth Center
06:24PM 35.5792 -98.1383 120° Southeast 176 203 11,600  Level Fort Worth Center
06:24PM 35.5711 -98.1231 123° Southeast 169 194 11,600  Level Fort Worth Center
06:25PM 35.5525 -98.0897 124° Southeast 174 200 11,600  Level Fort Worth Center
06:25PM 35.5442 -98.0744 124° Southeast 169 194 11,600  Level Fort Worth Center
06:26PM 35.5278 -98.0383 119° Southeast 173 199 11,600  Level Fort Worth Center
06:26PM 35.5214 -98.0231 117° Southeast 169 194 11,600  Level Fort Worth Center
06:27PM 35.5072 -97.9847 114° Southeast 171 197 11,600 -2,100 Level Fort Worth Center
06:27PM 35.5008 -97.9719 122° Southeast 169 194 9,500  Descending Fort Worth Center
06:28PM 35.4864 -97.9311 113° Southeast 168 193 11,600 2,100 Climbing Fort Worth Center
06:28PM 35.4803 -97.9183 120° Southeast 164 189 11,600  Level Fort Worth Center
06:29PM 35.4658 -97.8825 116° Southeast 168 193 11,600  Level Fort Worth Center
06:29PM 35.4617 -97.8672 109° East 164 189 11,600  Level Fort Worth Center
06:30PM 35.4411 -97.8161 116° Southeast 164 189 11,600  Level Fort Worth Center
06:31PM 35.4244 -97.7728 115° Southeast 168 193 11,600  Level Fort Worth Center
06:32PM 35.4039 -97.7192 115° Southeast 168 193 11,600  Level Fort Worth Center
06:33PM 35.3831 -97.6681 117° Southeast 170 196 11,600  Level Fort Worth Center
06:34PM 35.3664 -97.6250 115° Southeast 165 190 11,600  Level Fort Worth Center
06:35PM 35.3206 -97.5814 142° Southeast 173 199 11,600  Level Fort Worth Center
06:36PM 35.2769 -97.5739 172° South 164 189 11,600  Level Fort Worth Center
06:37PM 35.2331 -97.5636 169° South 163 188 11,600  Level Fort Worth Center
06:38PM 35.1872 -97.5533 170° South 165 190 11,600  Level Fort Worth Center
06:39PM 35.1600 -97.5456 167° South 182 209 11,600  Level Fort Worth Center
06:40PM 35.1142 -97.5353 170° South 182 209 11,600  Level Fort Worth Center
06:41PM 35.0703 -97.5253 169° South 176 203 11,600  Level Fort Worth Center
06:42PM 35.0225 -97.5125 168° South 171 197 11,600  Level Fort Worth Center
06:43PM 34.9786 -97.4922 159° South 171 197 11,600  Level Fort Worth Center
06:44PM 34.9347 -97.4717 159° South 171 197 11,600  Level Fort Worth Center
06:45PM 34.8911 -97.4489 157° South 171 197 11,600  Level Fort Worth Center
06:46PM 34.8472 -97.4286 159° South 171 197 11,600  Level Fort Worth Center
06:47PM 34.8033 -97.4058 157° South 171 197 11,600  Level Fort Worth Center
06:48PM 34.7617 -97.3806 154° Southeast 171 197 11,600  Level Fort Worth Center
06:49PM 34.7200 -97.3581 156° South 171 197 11,600  Level Fort Worth Center
06:50PM 34.6783 -97.3328 153° Southeast 171 197 11,600  Level Fort Worth Center
06:51PM 34.6344 -97.3125 159° South 171 197 11,600  Level Fort Worth Center
06:52PM 34.5928 -97.2975 163° South 171 197 11,600  Level Fort Worth Center
06:53PM 34.5489 -97.2875 169° South 165 190 11,600  Level Fort Worth Center
06:54PM 34.5050 -97.2750 167° South 165 190 11,600  Level Fort Worth Center
06:55PM 34.4633 -97.2625 166° South 160 184 11,600  Level Fort Worth Center
06:56PM 34.4194 -97.2475 164° South 160 184 11,600  Level Fort Worth Center
06:57PM 34.3756 -97.2322 164° South 160 184 11,600  Level Fort Worth Center
06:58PM 34.3317 -97.2200 167° South 160 184 11,600 -60 Level Fort Worth Center
06:59PM 34.2881 -97.2100 169° South 160 184 11,500  Descending Fort Worth Center
07:00PM 34.2461 -97.2000 169° South 160 184 11,600 60 Climbing Fort Worth Center
07:01PM 34.2022 -97.1850 164° South 160 184 11,700  Climbing Fort Worth Center
07:02PM 34.1606 -97.1650 158° South 160 184 11,600 -120 Descending Fort Worth Center
07:03PM 34.1353 -97.1100 119° Southeast 160 184 11,500  Descending Fort Worth Center
07:04PM 34.1103 -97.0522 118° Southeast 170 196 11,600  Climbing Fort Worth Center
07:05PM 34.0831 -96.9997 122° Southeast 182 209 11,600 -60 Level Fort Worth Center
07:06PM 34.0514 -96.9522 129° Southeast 187 215 11,500 -60 Descending Fort Worth Center
07:07PM 34.0178 -96.8997 128° Southeast 187 215 11,500  Level Fort Worth Center
07:08PM 33.9822 -96.8550 134° Southeast 187 215 11,600  Climbing Fort Worth Center
07:09PM 33.9486 -96.8100 132° Southeast 187 215 11,600  Level Fort Worth Center
07:10PM 33.9192 -96.7578 124° Southeast 187 215 11,600  Level Fort Worth Center
07:11PM 33.8856 -96.7103 130° Southeast 187 215 11,600  Level Fort Worth Center
07:12PM 33.8519 -96.6656 132° Southeast 187 215 11,600  Level Fort Worth Center
07:13PM 33.8181 -96.6183 131° Southeast 187 215 11,600  Level Fort Worth Center
07:13PM 33.8011 -96.5956 132° Southeast 180 207 11,600  Level FAA TRACON SMA TRACON (SMA)
07:14PM 33.7906 -96.5808 131° Southeast 185 213 11,600  Level FAA TRACON SMA TRACON (SMA)
07:14PM 33.7800 -96.5669 132° Southeast 184 212 11,600  Level FAA TRACON SMA TRACON (SMA)
07:14PM 33.7672 -96.5500 132° Southeast 184 212 11,600  Level FAA TRACON SMA TRACON (SMA)
07:15PM 33.7558 -96.5347 132° Southeast 188 216 11,600  Level FAA TRACON SMA TRACON (SMA)
07:15PM 33.7450 -96.5214 134° Southeast 190 219 11,600  Level FAA TRACON SMA TRACON (SMA)
07:15PM 33.7314 -96.5042 134° Southeast 187 215 11,600  Level FAA TRACON SMA TRACON (SMA)
07:16PM 33.7206 -96.4911 135° Southeast 185 213 11,600  Level FAA TRACON SMA TRACON (SMA)
07:16PM 33.7097 -96.4783 136° Southeast 180 207 11,600  Level FAA TRACON SMA TRACON (SMA)
07:16PM 33.6953 -96.4603 134° Southeast 186 214 11,600  Level FAA TRACON SMA TRACON (SMA)
07:17PM 33.6847 -96.4478 135° Southeast 188 216 11,600  Level FAA TRACON SMA TRACON (SMA)
07:17PM 33.6742 -96.4353 135° Southeast 184 212 11,600  Level FAA TRACON SMA TRACON (SMA)
07:17PM 33.6600 -96.4178 134° Southeast 184 212 11,600  Level FAA TRACON SMA TRACON (SMA)
07:18PM 33.6494 -96.4039 132° Southeast 183 211 11,600  Level FAA TRACON SMA TRACON (SMA)
07:18PM 33.6400 -96.3911 132° Southeast 180 207 11,600  Level FAA TRACON SMA TRACON (SMA)
07:18PM 33.6267 -96.3717 129° Southeast 185 213 11,600  Level FAA TRACON SMA TRACON (SMA)
07:19PM 33.6167 -96.3569 129° Southeast 187 215 11,600  Level FAA TRACON SMA TRACON (SMA)
07:19PM 33.6069 -96.3428 129° Southeast 185 213 11,600  Level FAA TRACON SMA TRACON (SMA)
07:19PM 33.5942 -96.3247 130° Southeast 185 213 11,600  Level FAA TRACON SMA TRACON (SMA)
07:20PM 33.5822 -96.3078 130° Southeast 191 220 11,600  Level FAA TRACON SMA TRACON (SMA)
07:20PM 33.5731 -96.2953 131° Southeast 189 217 11,600  Level FAA TRACON SMA TRACON (SMA)
07:20PM 33.5592 -96.2764 131° Southeast 190 219 11,600  Level FAA TRACON SMA TRACON (SMA)
07:21PM 33.5489 -96.2622 131° Southeast 188 216 11,600  Level FAA TRACON SMA TRACON (SMA)
07:21PM 33.5361 -96.2444 131° Southeast 186 214 11,600  Level FAA TRACON SMA TRACON (SMA)
07:21PM 33.5256 -96.2306 132° Southeast 186 214 11,600 -180 Level FAA TRACON SMA TRACON (SMA)
07:22PM 33.5131 -96.2219 150° Southeast 189 217 11,500  Descending FAA TRACON SMA TRACON (SMA)
07:22PM 33.4961 -96.2186 171° South 175 201 11,600 120 Climbing FAA TRACON SMA TRACON (SMA)
07:22PM 33.4847 -96.2192 182° South 163 188 11,600  Level FAA TRACON SMA TRACON (SMA)
07:23PM 33.4719 -96.2189 179° South 155 178 11,600  Level FAA TRACON SMA TRACON (SMA)
07:23PM 33.4578 -96.2183 178° South 148 170 11,600  Level FAA TRACON SMA TRACON (SMA)
07:23PM 33.4431 -96.2189 182° South 143 165 11,600  Level FAA TRACON SMA TRACON (SMA)
07:24PM 33.4306 -96.2194 182° South 143 165 11,600  Level FAA TRACON SMA TRACON (SMA)
07:24PM 33.4183 -96.2200 182° South 143 165 11,600 -180 Level FAA TRACON SMA TRACON (SMA)
07:24PM 33.4031 -96.2203 181° South 146 168 11,500 -300 Descending FAA TRACON SMA TRACON (SMA)
07:25PM 33.3889 -96.2194 177° South 151 174 11,400 -180 Descending FAA TRACON SMA TRACON (SMA)
07:25PM 33.3767 -96.2208 185° South 150 173 11,400 -300 Level FAA TRACON SMA TRACON (SMA)
07:25PM 33.3594 -96.2208 180° South 155 178 11,200 -600 Descending FAA TRACON SMA TRACON (SMA)
07:26PM 33.3456 -96.2208 180° South 162 186 11,000 -780 Descending FAA TRACON SMA TRACON (SMA)
07:26PM 33.3281 -96.2222 184° South 164 189 10,700 -780 Descending FAA TRACON SMA TRACON (SMA)
07:26PM 33.3131 -96.2233 184° South 169 194 10,500 -600 Descending FAA TRACON SMA TRACON (SMA)
07:27PM 33.2975 -96.2247 184° South 172 198 10,300 -720 Descending FAA TRACON SMA TRACON (SMA)
07:27PM 33.2794 -96.2275 187° South 174 200 10,000 -780 Descending FAA TRACON SMA TRACON (SMA)
07:27PM 33.2644 -96.2297 187° South 177 204 9,800 -600 Descending FAA TRACON SMA TRACON (SMA)
07:28PM 33.2489 -96.2314 185° South 179 206 9,600 -600 Descending FAA TRACON SMA TRACON (SMA)
07:28PM 33.2286 -96.2328 183° South 183 211 9,400 -600 Descending FAA TRACON SMA TRACON (SMA)
07:28PM 33.2136 -96.2347 186° South 182 209 9,200 -660 Descending FAA TRACON SMA TRACON (SMA)
07:29PM 33.1997 -96.2378 190° South 178 205 9,000 -540 Descending FAA TRACON SMA TRACON (SMA)
07:29PM 33.1842 -96.2397 186° South 176 203 8,900 -660 Descending FAA TRACON SMA TRACON (SMA)
07:29PM 33.1669 -96.2436 191° South 170 196 8,600 -900 Descending FAA TRACON SMA TRACON (SMA)
07:30PM 33.1519 -96.2467 190° South 172 198 8,300 -900 Descending FAA TRACON SMA TRACON (SMA)
07:30PM 33.1375 -96.2506 193° South 172 198 8,000 -1,020 Descending FAA TRACON SMA TRACON (SMA)
07:30PM 33.1211 -96.2558 195° South 167 192 7,600 -960 Descending FAA TRACON SMA TRACON (SMA)
07:31PM 33.1058 -96.2581 187° South 169 194 7,400 -780 Descending FAA TRACON SMA TRACON (SMA)
07:31PM 33.0919 -96.2603 188° South 167 192 7,100 -1,080 Descending FAA TRACON SMA TRACON (SMA)
07:31PM 33.0744 -96.2622 185° South 167 192 6,700 -1,080 Descending FAA TRACON SMA TRACON (SMA)
07:32PM 33.0603 -96.2633 184° South 171 197 6,400 -1,080 Descending FAA TRACON SMA TRACON (SMA)
07:32PM 33.0414 -96.2644 183° South 169 194 6,000 -1,020 Descending FAA TRACON SMA TRACON (SMA)
07:33PM 33.0131 -96.2675 185° South 167 192 5,400 -960 Descending FAA TRACON SMA TRACON (SMA)
07:33PM 32.9989 -96.2689 185° South 168 193 5,100 -1,080 Descending FAA TRACON SMA TRACON (SMA)
07:33PM 32.9800 -96.2681 178° South 171 197 4,700 -1,080 Descending FAA TRACON SMA TRACON (SMA)
07:34PM 32.9664 -96.2661 173° South 169 194 4,400 -1,080 Descending FAA TRACON SMA TRACON (SMA)
07:34PM 32.9508 -96.2639 173° South 171 197 4,000 -1,080 Descending FAA TRACON SMA TRACON (SMA)
07:34PM 32.9342 -96.2619 174° South 167 192 3,700 -780 Descending FAA TRACON SMA TRACON (SMA)
07:35PM 32.9206 -96.2608 176° South 162 186 3,500 -600 Descending FAA TRACON SMA TRACON (SMA)
07:35PM 32.9081 -96.2600 177° South 154 177 3,300 -780 Descending FAA TRACON SMA TRACON (SMA)
07:35PM 32.8922 -96.2611 183° South 148 170 3,000 -600 Descending FAA TRACON SMA TRACON (SMA)
07:36PM 32.8806 -96.2639 191° South 143 165 2,900 -600 Descending FAA TRACON SMA TRACON (SMA)
07:36PM 32.8689 -96.2658 188° South 140 161 2,600 -780 Descending FAA TRACON SMA TRACON (SMA)
07:36PM 32.8533 -96.2661 181° South 138 159 2,400 -360 Descending FAA TRACON SMA TRACON (SMA)
07:37PM 32.8428 -96.2650 175° South 135 155 2,400 -180 Level FAA TRACON SMA TRACON (SMA)
07:37PM 32.8308 -96.2656 182° South 135 155 2,300 -180 Descending FAA TRACON SMA TRACON (SMA)
07:37PM 32.8203 -96.2650 177° South 117 135 2,300 -180 Level FAA TRACON SMA TRACON (SMA)
07:38PM 32.8083 -96.2653 181° South 118 136 2,200 -480 Descending FAA TRACON SMA TRACON (SMA)
07:38PM 32.7986 -96.2656 181° South 121 139 2,000 -480 Descending FAA TRACON SMA TRACON (SMA)
07:38PM 32.7897 -96.2653 178° South 116 133 1,900 -360 Descending FAA TRACON SMA TRACON (SMA)
07:39PM 32.7797 -96.2653 180° South 118 136 1,800 -480 Descending FAA TRACON SMA TRACON (SMA)
07:39PM 32.7658 -96.2653 180° South 122 140 1,600 -600 Descending FAA TRACON SMA TRACON (SMA)
07:39PM 32.7567 -96.2647 177° South 114 131 1,400 -480 Descending FAA TRACON SMA TRACON (SMA)
07:40PM 32.7486 -96.2650 182° South 112 129 1,300 -180 Descending FAA TRACON SMA TRACON (SMA)
07:40PM 32.7486 -96.2650 360° North 112 129 1,300  Level FAA TRACON SMA TRACON (SMA)
07:42PM 32.7085 -96.2671 203° Southwest  Level Estimated
07:49PM 32.7085 -96.2671 203° Southwest  Level Estimated
07:50PM 32.7085 -96.2671 203° Southwest  Level Estimated
07:51PM 32.7085 -96.2671 203° Southwest  Level Estimated
07:52PM 32.7085 -96.2671 203° Southwest  Level Estimated
07:53PM 32.7085 -96.2671 203° Southwest  Level Estimated
07:54PM 32.7085 -96.2671 203° Southwest  Level Estimated
07:55PM 32.7085 -96.2671 203° Southwest  Level Estimated
07:56PM 32.7085 -96.2671 203° Southwest  Level Estimated
07:57PM 32.7085 -96.2671 203° Southwest  Level Estimated